Thomson Majesty — 9HA2188 — position and weather

sailwx.info

Track history (hours):
 
Tides and Currents Weather Stations Pressure Air Temp Water Temp Dewpoint Dewpoint Depression Visibility Wind Speed Wind Dir Waves Ship Positions

Thomson Majesty

Last reported at 2017-Jun-26 05:39 UTC. Time now 2017-Jun-26 11:55 UTC.
Position N 39°53' E 004°22'.

Length 207 m; draft 6.2 m.

Type: Ship. MMSI: 248124000.

Date/timePositionNaut miles runAvg speedWind from/ knotsBaromVisibWave heightAir tempDewpointWater temp
2017-Jun-26 05:39N 39°53' E 004°22'216.7
2017-Jun-26 05:30N 39°54' E 004°25'816.7
2017-Jun-26 05:00N 39°58' E 004°34'1016.9
2017-Jun-26 04:26N 40°02' E 004°46'1016.9
2017-Jun-26 03:50N 40°07' E 004°57'1912.2
2017-Jun-26 02:15N 40°16' E 005°20'416.5
2017-Jun-26 02:00N 40°18' E 005°24'816.5
2017-Jun-26 01:30N 40°22' E 005°34'816.7
2017-Jun-26 01:00N 40°26' E 005°44'3116.5
2017-Jun-25 23:08N 40°40' E 006°19'216.4
2017-Jun-25 23:00N 40°41' E 006°22'916.3
2017-Jun-25 22:26N 40°46' E 006°33'2516.2
2017-Jun-25 20:53N 40°57' E 007°02'916.3
2017-Jun-25 20:21N 41°02' E 007°12'716.4
2017-Jun-25 19:58N 41°05' E 007°20'716.2
2017-Jun-25 19:30N 41°08' E 007°28'816.1
2017-Jun-25 19:00N 41°12' E 007°38'816.2
2017-Jun-25 18:30N 41°16' E 007°47'2416.4
2017-Jun-25 17:03N 41°27' E 008°15'65 3.7
2017-Jun-24 23:42N 41°28' E 009°42'317.1
2017-Jun-24 23:30N 41°30' E 009°46'917.1
2017-Jun-24 22:59N 41°33' E 009°56'816.9
2017-Jun-24 22:30N 41°36' E 010°07'1016.6
2017-Jun-24 21:55N 41°40' E 010°19'916.5
2017-Jun-24 21:23N 41°43' E 010°30'616.7
2017-Jun-24 21:00N 41°46' E 010°37'917.1
2017-Jun-24 20:30N 41°49' E 010°48'917.1
2017-Jun-24 20:00N 41°52' E 010°59'816.9
2017-Jun-24 19:30N 41°55' E 011°09'1416.9
2017-Jun-24 18:42N 42°00' E 011°26'717.0
2017-Jun-24 18:18N 42°03' E 011°34'15 0.9
2017-Jun-24 02:43N 41°49' E 011°39'3316.6
2017-Jun-24 00:42N 41°22' E 012°04'2114.1
2017-Jun-23 23:12N 41°05' E 012°21'5714.8
2017-Jun-23 19:21N 40°33' E 013°23'616.6
2017-Jun-23 19:01N 40°32' E 013°30'816.3
2017-Jun-23 18:31N 40°32' E 013°41'816.7
2017-Jun-23 18:01N 40°33' E 013°52'816.9
2017-Jun-23 17:31N 40°35' E 014°03'816.8
2017-Jun-23 17:01N 40°38' E 014°13'713.5
2017-Jun-23 16:30N 40°39' E 014°22'1 1.3
2017-Jun-23 15:59N 40°38' E 014°23'0 0.0
2017-Jun-23 15:29N 40°38' E 014°23'0 0.1
2017-Jun-23 14:59N 40°38' E 014°23'0 0.0
2017-Jun-23 13:59N 40°38' E 014°23'0 0.0
2017-Jun-23 13:29N 40°38' E 014°23'0 0.0
2017-Jun-23 12:59N 40°38' E 014°23'0 0.0
2017-Jun-23 12:29N 40°38' E 014°23'0 0.0
2017-Jun-23 11:59N 40°38' E 014°23'0 0.1
2017-Jun-23 11:29N 40°38' E 014°23'0 0.0
2017-Jun-23 10:59N 40°38' E 014°23'0 0.0
2017-Jun-23 10:29N 40°38' E 014°23'0 0.0
2017-Jun-23 09:59N 40°38' E 014°23'0 0.1
2017-Jun-23 09:29N 40°38' E 014°23'0 0.0
2017-Jun-23 08:59N 40°38' E 014°23'0 0.1
2017-Jun-23 08:29N 40°38' E 014°23'0 0.1
2017-Jun-23 07:56N 40°38' E 014°23'0 0.0
2017-Jun-23 07:29N 40°38' E 014°23'0 0.0
2017-Jun-23 06:56N 40°38' E 014°23'0 0.0
2017-Jun-23 06:29N 40°38' E 014°23'0 0.0
2017-Jun-23 05:56N 40°38' E 014°23'0 0.0
2017-Jun-23 05:29N 40°38' E 014°23'1 0.9
2017-Jun-23 03:53N 40°39' E 014°21'615.6
2017-Jun-23 03:30N 40°36' E 014°14'816.2
2017-Jun-23 03:00N 40°31' E 014°07'816.7
2017-Jun-23 02:30N 40°23' E 014°02'816.4
2017-Jun-23 02:00N 40°16' E 013°56'612.7
2017-Jun-23 01:30N 40°11' E 013°52'612.3
2017-Jun-23 01:00N 40°05' E 013°48'612.6
2017-Jun-23 00:30N 39°60' E 013°44'612.6
2017-Jun-23 00:00N 39°54' E 013°40'612.7
2017-Jun-22 23:30N 39°49' E 013°35'812.8
2017-Jun-22 22:52N 39°42' E 013°30'512.9
2017-Jun-22 22:30N 39°38' E 013°27'912.9
2017-Jun-22 21:48N 39°30' E 013°21'512.7
2017-Jun-22 21:22N 39°25' E 013°17'512.7
2017-Jun-22 21:00N 39°21' E 013°14'912.5
2017-Jun-22 20:19N 39°14' E 013°09'412.3
2017-Jun-22 19:59N 39°10' E 013°06'816.5
2017-Jun-22 19:31N 39°04' E 013°01'1616.7
2017-Jun-22 18:34N 38°50' E 012°51'116.7
2017-Jun-22 18:30N 38°49' E 012°50'816.7
2017-Jun-22 18:00N 38°42' E 012°45'816.6
2017-Jun-22 17:31N 38°35' E 012°39'816.4
2017-Jun-22 17:00N 38°28' E 012°34'816.5
2017-Jun-22 16:30N 38°21' E 012°29'815.7
2017-Jun-22 16:00N 38°13' E 012°26'816.0
2017-Jun-22 15:31N 38°05' E 012°27'510.1
2017-Jun-22 15:00N 38°01' E 012°30'0 0.5
2017-Jun-22 14:30N 38°01' E 012°30'0 0.0
2017-Jun-22 13:17N 38°01' E 012°30'0 0.0
2017-Jun-22 13:00N 38°01' E 012°30'0 0.0
2017-Jun-22 12:29N 38°01' E 012°30'0 0.0
2017-Jun-22 11:48N 38°01' E 012°30'0 0.0
2017-Jun-22 11:18N 38°01' E 012°30'0 0.0
2017-Jun-22 10:33N 38°01' E 012°30'0 0.0
2017-Jun-22 10:24N 38°01' E 012°30'0 0.0
2017-Jun-22 09:50N 38°01' E 012°30'0 0.0
2017-Jun-22 09:24N 38°01' E 012°30'0 0.0
2017-Jun-22 08:54N 38°01' E 012°30'0 0.0
2017-Jun-22 08:23N 38°01' E 012°30'0 0.0
2017-Jun-22 07:57N 38°01' E 012°30'0 0.0
2017-Jun-22 07:26N 38°01' E 012°30'0 0.0
2017-Jun-22 06:53N 38°01' E 012°30'0 0.0
2017-Jun-22 06:24N 38°01' E 012°30'0 0.0
2017-Jun-22 05:57N 38°01' E 012°30'0 0.0
2017-Jun-22 05:27N 38°01' E 012°30'0 0.0
2017-Jun-22 05:00N 38°01' E 012°30'0 0.0
2017-Jun-22 04:30N 38°01' E 012°30'0 0.6
2017-Jun-22 04:00N 38°01' E 012°30'3 6.7
2017-Jun-22 03:30N 38°01' E 012°26'915.7
2017-Jun-22 02:58N 38°07' E 012°18'816.2
2017-Jun-22 02:26N 38°14' E 012°12'715.9
2017-Jun-22 02:01N 38°14' E 012°03'816.4
2017-Jun-22 01:30N 38°15' E 011°53'1416.4
2017-Jun-22 00:38N 38°16' E 011°35'216.4
2017-Jun-22 00:30N 38°17' E 011°32'816.4
2017-Jun-22 00:00N 38°18' E 011°22'816.4
2017-Jun-21 23:30N 38°18' E 011°11'816.4
2017-Jun-21 23:00N 38°19' E 011°01'816.2
2017-Jun-21 22:30N 38°20' E 010°51'816.2
2017-Jun-21 22:01N 38°21' E 010°41'816.3
2017-Jun-21 21:30N 38°22' E 010°30'816.2
2017-Jun-21 21:01N 38°23' E 010°20'816.3
2017-Jun-21 20:30N 38°24' E 010°10'816.5
2017-Jun-21 20:01N 38°25' E 009°59'816.4
2017-Jun-21 19:30N 38°26' E 009°49'816.1
2017-Jun-21 18:59N 38°27' E 009°38'816.1
2017-Jun-21 18:30N 38°28' E 009°28'916.1
2017-Jun-21 17:58N 38°29' E 009°17'816.0
2017-Jun-21 17:29N 38°30' E 009°08'1016.2
2017-Jun-21 16:51N 38°31' E 008°55'616.3
2017-Jun-21 16:30N 38°32' E 008°47'816.4
2017-Jun-21 16:00N 38°33' E 008°37'816.3
2017-Jun-21 15:31N 38°34' E 008°27'816.5
2017-Jun-21 15:00N 38°35' E 008°16'4216.4
2017-Jun-21 12:27N 38°40' E 007°23'5716.5
2017-Jun-21 09:00N 38°46' E 006°10'1015.0
2017-Jun-21 08:18N 38°48' E 005°57'715.1
2017-Jun-21 07:50N 38°49' E 005°48'615.1
2017-Jun-21 07:28N 38°49' E 005°41'1715.0
2017-Jun-21 06:20N 38°51' E 005°19'715.0
2017-Jun-21 05:52N 38°52' E 005°10'615.0
2017-Jun-21 05:30N 38°53' E 005°03'815.0
2017-Jun-21 05:00N 38°54' E 004°54'715.1
2017-Jun-21 04:30N 38°54' E 004°44'815.2
2017-Jun-21 04:00N 38°55' E 004°35'815.1
2017-Jun-21 03:30N 38°56' E 004°25'815.2
2017-Jun-21 03:00N 38°57' E 004°15'816.9
2017-Jun-21 02:30N 38°58' E 004°04'816.9
2017-Jun-21 02:01N 38°59' E 003°54'816.8
2017-Jun-21 01:31N 39°00' E 003°43'816.7
2017-Jun-21 01:00N 39°01' E 003°32'816.7
2017-Jun-21 00:30N 39°02' E 003°21'816.7
2017-Jun-21 00:00N 39°03' E 003°11'816.7
2017-Jun-20 23:30N 39°04' E 003°00'815.9
2017-Jun-20 23:00N 39°07' E 002°51'816.5
2017-Jun-20 22:30N 39°13' E 002°44'816.5
2017-Jun-20 22:00N 39°20' E 002°38'816.5
2017-Jun-20 21:30N 39°28' E 002°38'4 8.9
2017-Jun-20 21:00N 39°33' E 002°38'0 0.0
2017-Jun-20 20:28N 39°33' E 002°38'0 0.0
2017-Jun-20 19:58N 39°33' E 002°38'0 0.0
2017-Jun-20 19:28N 39°33' E 002°38'0 0.0
2017-Jun-20 18:58N 39°33' E 002°38'0 0.0
2017-Jun-20 18:28N 39°33' E 002°38'0 0.0
2017-Jun-20 17:58N 39°33' E 002°38'0 0.0
2017-Jun-20 17:28N 39°33' E 002°38'0 0.0
2017-Jun-20 16:58N 39°33' E 002°38'0 0.0
2017-Jun-20 16:28N 39°33' E 002°38'0 0.0
2017-Jun-20 15:58N 39°33' E 002°38'0 0.0
2017-Jun-20 15:28N 39°33' E 002°38'0 0.0
2017-Jun-20 14:58N 39°33' E 002°38'0 0.0
2017-Jun-20 14:28N 39°33' E 002°38'0 0.0
2017-Jun-20 13:28N 39°33' E 002°38'0 0.0
2017-Jun-20 12:58N 39°33' E 002°38'0 0.0
2017-Jun-20 12:28N 39°33' E 002°38'0 0.0
2017-Jun-20 11:58N 39°33' E 002°38'0 0.0
2017-Jun-20 11:28N 39°33' E 002°38'0 0.0
2017-Jun-20 10:58N 39°33' E 002°38'0 0.0
2017-Jun-20 10:25N 39°33' E 002°38'0 0.0
2017-Jun-20 09:58N 39°33' E 002°38'0 0.0
2017-Jun-20 09:28N 39°33' E 002°38'0 0.0
2017-Jun-20 08:58N 39°33' E 002°38'0 0.0
2017-Jun-20 08:28N 39°33' E 002°38'0 0.0
2017-Jun-20 07:58N 39°33' E 002°38'0 0.0
2017-Jun-20 07:28N 39°33' E 002°38'0 0.0
2017-Jun-20 06:58N 39°33' E 002°38'0 0.0
2017-Jun-20 06:28N 39°33' E 002°38'0 0.0
2017-Jun-20 05:58N 39°33' E 002°38'0 0.0
2017-Jun-20 05:28N 39°33' E 002°38'0 0.0
2017-Jun-20 04:58N 39°33' E 002°38'0 0.0
2017-Jun-20 04:28N 39°33' E 002°38'0 0.0
2017-Jun-20 03:58N 39°33' E 002°38'0 0.1
2017-Jun-20 03:30N 39°33' E 002°38'2 3.3
2017-Jun-20 03:00N 39°31' E 002°38'816.2
2017-Jun-20 02:30N 39°26' E 002°30'816.8
2017-Jun-20 02:00N 39°26' E 002°19'816.7
2017-Jun-20 01:30N 39°26' E 002°08'815.6
2017-Jun-20 01:00N 39°26' E 001°58'611.9
2017-Jun-20 00:30N 39°28' E 001°51'510.2
2017-Jun-20 00:00N 39°30' E 001°45'612.9
2017-Jun-19 23:30N 39°27' E 001°37'612.7
2017-Jun-19 23:01N 39°26' E 001°29'713.0
2017-Jun-19 22:30N 39°26' E 001°21'613.0
2017-Jun-19 22:00N 39°25' E 001°12'1212.8
2017-Jun-19 21:06N 39°25' E 000°57'112.6
2017-Jun-19 21:00N 39°25' E 000°56'612.5
2017-Jun-19 20:30N 39°25' E 000°48'612.5
2017-Jun-19 20:00N 39°25' E 000°40'34 2.0
2017-Jun-19 03:08N 39°04' E 000°05'312.9
2017-Jun-19 02:55N 39°02' E 000°07'513.0
2017-Jun-19 02:30N 38°58' E 000°11'713.0
2017-Jun-19 01:57N 38°52' E 000°17'612.9
2017-Jun-19 01:29N 38°48' E 000°22'712.7
2017-Jun-19 00:56N 38°42' E 000°27'613.3
2017-Jun-19 00:30N 38°37' E 000°23'712.9
2017-Jun-18 23:58N 38°31' E 000°18'612.7
2017-Jun-18 23:29N 38°26' E 000°14'612.7
2017-Jun-18 22:59N 38°21' E 000°09'712.8
2017-Jun-18 22:28N 38°15' E 000°05'612.5
2017-Jun-18 21:59N 38°10' E 000°00'612.2
2017-Jun-18 21:29N 38°05' W 000°04'612.2
2017-Jun-18 21:00N 38°00' W 000°08'612.4
2017-Jun-18 20:28N 37°55' W 000°13'612.4
2017-Jun-18 19:59N 37°50' W 000°17'612.4
2017-Jun-18 19:30N 37°44' W 000°20'612.7
2017-Jun-18 19:00N 37°39' W 000°25'612.7
2017-Jun-18 18:30N 37°34' W 000°30'612.1
2017-Jun-18 18:00N 37°31' W 000°36'612.5
2017-Jun-18 17:29N 37°31' W 000°44'612.5
2017-Jun-18 17:00N 37°31' W 000°52'7 0.6
2017-Jun-18 05:23N 37°36' W 000°59'3 6.6
2017-Jun-18 05:00N 37°33' W 001°00'1015.0
2017-Jun-18 04:19N 37°25' W 001°08'6016.5
2017-Jun-18 00:39N 36°38' W 001°56'216.2
2017-Jun-18 00:30N 36°36' W 001°57'816.1
2017-Jun-18 00:00N 36°29' W 002°01'815.5
2017-Jun-17 23:29N 36°22' W 002°06'816.2
2017-Jun-17 22:59N 36°21' W 002°16'13117.4
2017-Jun-17 15:28N 36°07' W 004°57'818.4
2017-Jun-17 15:00N 36°06' W 005°08'1211.6
2017-Jun-17 14:00N 36°09' W 005°22'0 0.0
2017-Jun-17 13:30N 36°09' W 005°22'0 0.0
2017-Jun-17 13:00N 36°09' W 005°22'0 0.0
2017-Jun-17 12:30N 36°09' W 005°22'0 0.0
2017-Jun-17 12:00N 36°09' W 005°22'0 0.0
2017-Jun-17 11:30N 36°09' W 005°22'0 0.0
2017-Jun-17 11:00N 36°09' W 005°22'0 0.0
2017-Jun-17 10:27N 36°09' W 005°22'0 0.0
2017-Jun-17 10:00N 36°09' W 005°22'0 0.0
2017-Jun-17 09:30N 36°09' W 005°22'0 0.0
2017-Jun-17 09:00N 36°09' W 005°22'0 0.0
2017-Jun-17 08:30N 36°09' W 005°22'0 0.0
2017-Jun-17 08:00N 36°09' W 005°22'0 0.0
2017-Jun-17 07:30N 36°09' W 005°22'0 0.0
2017-Jun-17 07:00N 36°09' W 005°22'0 0.0
2017-Jun-17 06:30N 36°09' W 005°22'0 0.1
2017-Jun-17 06:00N 36°09' W 005°22'3 5.8
2017-Jun-17 05:30N 36°06' W 005°23'714.0
2017-Jun-17 05:00N 35°59' W 005°24'1016.6
2017-Jun-17 04:24N 35°56' W 005°36'915.2
2017-Jun-17 03:48N 35°55' W 005°47'515.5
2017-Jun-17 03:30N 35°54' W 005°53'815.7
2017-Jun-17 03:00N 35°53' W 006°02'815.7
2017-Jun-17 02:30N 35°53' W 006°12'3315.2
2017-Jun-17 00:20N 35°27' W 006°37'815.6
2017-Jun-16 23:47N 35°19' W 006°42'3215.3
2017-Jun-16 21:42N 34°54' W 007°05'415.2
2017-Jun-16 21:25N 34°50' W 007°08'1615.2
2017-Jun-16 20:20N 34°36' W 007°17'515.4
2017-Jun-16 19:59N 34°31' W 007°20'715.2
2017-Jun-16 19:30N 34°24' W 007°23'815.5
2017-Jun-16 18:59N 34°16' W 007°26'815.7
2017-Jun-16 18:30N 34°09' W 007°30'  
Track history (hours):
 
Tides and Currents Weather Stations Pressure Air Temp Water Temp Dewpoint Dewpoint Depression Visibility Wind Speed Wind Dir Waves Ship Positions

Thomson Majesty

Last reported at 2017-Jun-26 05:39 UTC. Time now 2017-Jun-26 11:55 UTC.
Position N 39°53' E 004°22'.

Length 207 m; draft 6.2 m.

Type: Ship. MMSI: 248124000.

Date/timePositionNaut miles runAvg speedWind from/ knotsBaromVisibWave heightAir tempDewpointWater temp
2017-Jun-26 05:39N 39°53' E 004°22'216.7
2017-Jun-26 05:30N 39°54' E 004°25'816.7
2017-Jun-26 05:00N 39°58' E 004°34'1016.9
2017-Jun-26 04:26N 40°02' E 004°46'1016.9
2017-Jun-26 03:50N 40°07' E 004°57'1912.2
2017-Jun-26 02:15N 40°16' E 005°20'416.5
2017-Jun-26 02:00N 40°18' E 005°24'816.5
2017-Jun-26 01:30N 40°22' E 005°34'816.7
2017-Jun-26 01:00N 40°26' E 005°44'3116.5
2017-Jun-25 23:08N 40°40' E 006°19'216.4
2017-Jun-25 23:00N 40°41' E 006°22'916.3
2017-Jun-25 22:26N 40°46' E 006°33'2516.2
2017-Jun-25 20:53N 40°57' E 007°02'916.3
2017-Jun-25 20:21N 41°02' E 007°12'716.4
2017-Jun-25 19:58N 41°05' E 007°20'716.2
2017-Jun-25 19:30N 41°08' E 007°28'816.1
2017-Jun-25 19:00N 41°12' E 007°38'816.2
2017-Jun-25 18:30N 41°16' E 007°47'2416.4
2017-Jun-25 17:03N 41°27' E 008°15'65 3.7
2017-Jun-24 23:42N 41°28' E 009°42'317.1
2017-Jun-24 23:30N 41°30' E 009°46'917.1
2017-Jun-24 22:59N 41°33' E 009°56'816.9
2017-Jun-24 22:30N 41°36' E 010°07'1016.6
2017-Jun-24 21:55N 41°40' E 010°19'916.5
2017-Jun-24 21:23N 41°43' E 010°30'616.7
2017-Jun-24 21:00N 41°46' E 010°37'917.1
2017-Jun-24 20:30N 41°49' E 010°48'917.1
2017-Jun-24 20:00N 41°52' E 010°59'816.9
2017-Jun-24 19:30N 41°55' E 011°09'1416.9
2017-Jun-24 18:42N 42°00' E 011°26'717.0
2017-Jun-24 18:18N 42°03' E 011°34'15 0.9
2017-Jun-24 02:43N 41°49' E 011°39'3316.6
2017-Jun-24 00:42N 41°22' E 012°04'2114.1
2017-Jun-23 23:12N 41°05' E 012°21'5714.8
2017-Jun-23 19:21N 40°33' E 013°23'616.6
2017-Jun-23 19:01N 40°32' E 013°30'816.3
2017-Jun-23 18:31N 40°32' E 013°41'816.7
2017-Jun-23 18:01N 40°33' E 013°52'816.9
2017-Jun-23 17:31N 40°35' E 014°03'816.8
2017-Jun-23 17:01N 40°38' E 014°13'713.5
2017-Jun-23 16:30N 40°39' E 014°22'1 1.3
2017-Jun-23 15:59N 40°38' E 014°23'0 0.0
2017-Jun-23 15:29N 40°38' E 014°23'0 0.1
2017-Jun-23 14:59N 40°38' E 014°23'0 0.0
2017-Jun-23 13:59N 40°38' E 014°23'0 0.0
2017-Jun-23 13:29N 40°38' E 014°23'0 0.0
2017-Jun-23 12:59N 40°38' E 014°23'0 0.0
2017-Jun-23 12:29N 40°38' E 014°23'0 0.0
2017-Jun-23 11:59N 40°38' E 014°23'0 0.1
2017-Jun-23 11:29N 40°38' E 014°23'0 0.0
2017-Jun-23 10:59N 40°38' E 014°23'0 0.0
2017-Jun-23 10:29N 40°38' E 014°23'0 0.0
2017-Jun-23 09:59N 40°38' E 014°23'0 0.1
2017-Jun-23 09:29N 40°38' E 014°23'0 0.0
2017-Jun-23 08:59N 40°38' E 014°23'0 0.1
2017-Jun-23 08:29N 40°38' E 014°23'0 0.1
2017-Jun-23 07:56N 40°38' E 014°23'0 0.0
2017-Jun-23 07:29N 40°38' E 014°23'0 0.0
2017-Jun-23 06:56N 40°38' E 014°23'0 0.0
2017-Jun-23 06:29N 40°38' E 014°23'0 0.0
2017-Jun-23 05:56N 40°38' E 014°23'0 0.0
2017-Jun-23 05:29N 40°38' E 014°23'1 0.9
2017-Jun-23 03:53N 40°39' E 014°21'615.6
2017-Jun-23 03:30N 40°36' E 014°14'816.2
2017-Jun-23 03:00N 40°31' E 014°07'816.7
2017-Jun-23 02:30N 40°23' E 014°02'816.4
2017-Jun-23 02:00N 40°16' E 013°56'612.7
2017-Jun-23 01:30N 40°11' E 013°52'612.3
2017-Jun-23 01:00N 40°05' E 013°48'612.6
2017-Jun-23 00:30N 39°60' E 013°44'612.6
2017-Jun-23 00:00N 39°54' E 013°40'612.7
2017-Jun-22 23:30N 39°49' E 013°35'812.8
2017-Jun-22 22:52N 39°42' E 013°30'512.9
2017-Jun-22 22:30N 39°38' E 013°27'912.9
2017-Jun-22 21:48N 39°30' E 013°21'512.7
2017-Jun-22 21:22N 39°25' E 013°17'512.7
2017-Jun-22 21:00N 39°21' E 013°14'912.5
2017-Jun-22 20:19N 39°14' E 013°09'412.3
2017-Jun-22 19:59N 39°10' E 013°06'816.5
2017-Jun-22 19:31N 39°04' E 013°01'1616.7
2017-Jun-22 18:34N 38°50' E 012°51'116.7
2017-Jun-22 18:30N 38°49' E 012°50'816.7
2017-Jun-22 18:00N 38°42' E 012°45'816.6
2017-Jun-22 17:31N 38°35' E 012°39'816.4
2017-Jun-22 17:00N 38°28' E 012°34'816.5
2017-Jun-22 16:30N 38°21' E 012°29'815.7
2017-Jun-22 16:00N 38°13' E 012°26'816.0
2017-Jun-22 15:31N 38°05' E 012°27'510.1
2017-Jun-22 15:00N 38°01' E 012°30'0 0.5
2017-Jun-22 14:30N 38°01' E 012°30'0 0.0
2017-Jun-22 13:17N 38°01' E 012°30'0 0.0
2017-Jun-22 13:00N 38°01' E 012°30'0 0.0
2017-Jun-22 12:29N 38°01' E 012°30'0 0.0
2017-Jun-22 11:48N 38°01' E 012°30'0 0.0
2017-Jun-22 11:18N 38°01' E 012°30'0 0.0
2017-Jun-22 10:33N 38°01' E 012°30'0 0.0
2017-Jun-22 10:24N 38°01' E 012°30'0 0.0
2017-Jun-22 09:50N 38°01' E 012°30'0 0.0
2017-Jun-22 09:24N 38°01' E 012°30'0 0.0
2017-Jun-22 08:54N 38°01' E 012°30'0 0.0
2017-Jun-22 08:23N 38°01' E 012°30'0 0.0
2017-Jun-22 07:57N 38°01' E 012°30'0 0.0
2017-Jun-22 07:26N 38°01' E 012°30'0 0.0
2017-Jun-22 06:53N 38°01' E 012°30'0 0.0
2017-Jun-22 06:24N 38°01' E 012°30'0 0.0
2017-Jun-22 05:57N 38°01' E 012°30'0 0.0
2017-Jun-22 05:27N 38°01' E 012°30'0 0.0
2017-Jun-22 05:00N 38°01' E 012°30'0 0.0
2017-Jun-22 04:30N 38°01' E 012°30'0 0.6
2017-Jun-22 04:00N 38°01' E 012°30'3 6.7
2017-Jun-22 03:30N 38°01' E 012°26'915.7
2017-Jun-22 02:58N 38°07' E 012°18'816.2
2017-Jun-22 02:26N 38°14' E 012°12'715.9
2017-Jun-22 02:01N 38°14' E 012°03'816.4
2017-Jun-22 01:30N 38°15' E 011°53'1416.4
2017-Jun-22 00:38N 38°16' E 011°35'216.4
2017-Jun-22 00:30N 38°17' E 011°32'816.4
2017-Jun-22 00:00N 38°18' E 011°22'816.4
2017-Jun-21 23:30N 38°18' E 011°11'816.4
2017-Jun-21 23:00N 38°19' E 011°01'816.2
2017-Jun-21 22:30N 38°20' E 010°51'816.2
2017-Jun-21 22:01N 38°21' E 010°41'816.3
2017-Jun-21 21:30N 38°22' E 010°30'816.2
2017-Jun-21 21:01N 38°23' E 010°20'816.3
2017-Jun-21 20:30N 38°24' E 010°10'816.5
2017-Jun-21 20:01N 38°25' E 009°59'816.4
2017-Jun-21 19:30N 38°26' E 009°49'816.1
2017-Jun-21 18:59N 38°27' E 009°38'816.1
2017-Jun-21 18:30N 38°28' E 009°28'916.1
2017-Jun-21 17:58N 38°29' E 009°17'816.0
2017-Jun-21 17:29N 38°30' E 009°08'1016.2
2017-Jun-21 16:51N 38°31' E 008°55'616.3
2017-Jun-21 16:30N 38°32' E 008°47'816.4
2017-Jun-21 16:00N 38°33' E 008°37'816.3
2017-Jun-21 15:31N 38°34' E 008°27'816.5
2017-Jun-21 15:00N 38°35' E 008°16'4216.4
2017-Jun-21 12:27N 38°40' E 007°23'5716.5
2017-Jun-21 09:00N 38°46' E 006°10'1015.0
2017-Jun-21 08:18N 38°48' E 005°57'715.1
2017-Jun-21 07:50N 38°49' E 005°48'615.1
2017-Jun-21 07:28N 38°49' E 005°41'1715.0
2017-Jun-21 06:20N 38°51' E 005°19'715.0
2017-Jun-21 05:52N 38°52' E 005°10'615.0
2017-Jun-21 05:30N 38°53' E 005°03'815.0
2017-Jun-21 05:00N 38°54' E 004°54'715.1
2017-Jun-21 04:30N 38°54' E 004°44'815.2
2017-Jun-21 04:00N 38°55' E 004°35'815.1
2017-Jun-21 03:30N 38°56' E 004°25'815.2
2017-Jun-21 03:00N 38°57' E 004°15'816.9
2017-Jun-21 02:30N 38°58' E 004°04'816.9
2017-Jun-21 02:01N 38°59' E 003°54'816.8
2017-Jun-21 01:31N 39°00' E 003°43'816.7
2017-Jun-21 01:00N 39°01' E 003°32'816.7
2017-Jun-21 00:30N 39°02' E 003°21'816.7
2017-Jun-21 00:00N 39°03' E 003°11'816.7
2017-Jun-20 23:30N 39°04' E 003°00'815.9
2017-Jun-20 23:00N 39°07' E 002°51'816.5
2017-Jun-20 22:30N 39°13' E 002°44'816.5
2017-Jun-20 22:00N 39°20' E 002°38'816.5
2017-Jun-20 21:30N 39°28' E 002°38'4 8.9
2017-Jun-20 21:00N 39°33' E 002°38'0 0.0
2017-Jun-20 20:28N 39°33' E 002°38'0 0.0
2017-Jun-20 19:58N 39°33' E 002°38'0 0.0
2017-Jun-20 19:28N 39°33' E 002°38'0 0.0
2017-Jun-20 18:58N 39°33' E 002°38'0 0.0
2017-Jun-20 18:28N 39°33' E 002°38'0 0.0
2017-Jun-20 17:58N 39°33' E 002°38'0 0.0
2017-Jun-20 17:28N 39°33' E 002°38'0 0.0
2017-Jun-20 16:58N 39°33' E 002°38'0 0.0
2017-Jun-20 16:28N 39°33' E 002°38'0 0.0
2017-Jun-20 15:58N 39°33' E 002°38'0 0.0
2017-Jun-20 15:28N 39°33' E 002°38'0 0.0
2017-Jun-20 14:58N 39°33' E 002°38'0 0.0
2017-Jun-20 14:28N 39°33' E 002°38'0 0.0
2017-Jun-20 13:28N 39°33' E 002°38'0 0.0
2017-Jun-20 12:58N 39°33' E 002°38'0 0.0
2017-Jun-20 12:28N 39°33' E 002°38'0 0.0
2017-Jun-20 11:58N 39°33' E 002°38'0 0.0
2017-Jun-20 11:28N 39°33' E 002°38'0 0.0
2017-Jun-20 10:58N 39°33' E 002°38'0 0.0
2017-Jun-20 10:25N 39°33' E 002°38'0 0.0
2017-Jun-20 09:58N 39°33' E 002°38'0 0.0
2017-Jun-20 09:28N 39°33' E 002°38'0 0.0
2017-Jun-20 08:58N 39°33' E 002°38'0 0.0
2017-Jun-20 08:28N 39°33' E 002°38'0 0.0
2017-Jun-20 07:58N 39°33' E 002°38'0 0.0
2017-Jun-20 07:28N 39°33' E 002°38'0 0.0
2017-Jun-20 06:58N 39°33' E 002°38'0 0.0
2017-Jun-20 06:28N 39°33' E 002°38'0 0.0
2017-Jun-20 05:58N 39°33' E 002°38'0 0.0
2017-Jun-20 05:28N 39°33' E 002°38'0 0.0
2017-Jun-20 04:58N 39°33' E 002°38'0 0.0
2017-Jun-20 04:28N 39°33' E 002°38'0 0.0
2017-Jun-20 03:58N 39°33' E 002°38'0 0.1
2017-Jun-20 03:30N 39°33' E 002°38'2 3.3
2017-Jun-20 03:00N 39°31' E 002°38'816.2
2017-Jun-20 02:30N 39°26' E 002°30'816.8
2017-Jun-20 02:00N 39°26' E 002°19'816.7
2017-Jun-20 01:30N 39°26' E 002°08'815.6
2017-Jun-20 01:00N 39°26' E 001°58'611.9
2017-Jun-20 00:30N 39°28' E 001°51'510.2
2017-Jun-20 00:00N 39°30' E 001°45'612.9
2017-Jun-19 23:30N 39°27' E 001°37'612.7
2017-Jun-19 23:01N 39°26' E 001°29'713.0
2017-Jun-19 22:30N 39°26' E 001°21'613.0
2017-Jun-19 22:00N 39°25' E 001°12'1212.8
2017-Jun-19 21:06N 39°25' E 000°57'112.6
2017-Jun-19 21:00N 39°25' E 000°56'612.5
2017-Jun-19 20:30N 39°25' E 000°48'612.5
2017-Jun-19 20:00N 39°25' E 000°40'34 2.0
2017-Jun-19 03:08N 39°04' E 000°05'312.9
2017-Jun-19 02:55N 39°02' E 000°07'513.0
2017-Jun-19 02:30N 38°58' E 000°11'713.0
2017-Jun-19 01:57N 38°52' E 000°17'612.9
2017-Jun-19 01:29N 38°48' E 000°22'712.7
2017-Jun-19 00:56N 38°42' E 000°27'613.3
2017-Jun-19 00:30N 38°37' E 000°23'712.9
2017-Jun-18 23:58N 38°31' E 000°18'612.7
2017-Jun-18 23:29N 38°26' E 000°14'612.7
2017-Jun-18 22:59N 38°21' E 000°09'712.8
2017-Jun-18 22:28N 38°15' E 000°05'612.5
2017-Jun-18 21:59N 38°10' E 000°00'612.2
2017-Jun-18 21:29N 38°05' W 000°04'612.2
2017-Jun-18 21:00N 38°00' W 000°08'612.4
2017-Jun-18 20:28N 37°55' W 000°13'612.4
2017-Jun-18 19:59N 37°50' W 000°17'612.4
2017-Jun-18 19:30N 37°44' W 000°20'612.7
2017-Jun-18 19:00N 37°39' W 000°25'612.7
2017-Jun-18 18:30N 37°34' W 000°30'612.1
2017-Jun-18 18:00N 37°31' W 000°36'612.5
2017-Jun-18 17:29N 37°31' W 000°44'612.5
2017-Jun-18 17:00N 37°31' W 000°52'7 0.6
2017-Jun-18 05:23N 37°36' W 000°59'3 6.6
2017-Jun-18 05:00N 37°33' W 001°00'1015.0
2017-Jun-18 04:19N 37°25' W 001°08'6016.5
2017-Jun-18 00:39N 36°38' W 001°56'216.2
2017-Jun-18 00:30N 36°36' W 001°57'816.1
2017-Jun-18 00:00N 36°29' W 002°01'815.5
2017-Jun-17 23:29N 36°22' W 002°06'816.2
2017-Jun-17 22:59N 36°21' W 002°16'13117.4
2017-Jun-17 15:28N 36°07' W 004°57'818.4
2017-Jun-17 15:00N 36°06' W 005°08'1211.6
2017-Jun-17 14:00N 36°09' W 005°22'0 0.0
2017-Jun-17 13:30N 36°09' W 005°22'0 0.0
2017-Jun-17 13:00N 36°09' W 005°22'0 0.0
2017-Jun-17 12:30N 36°09' W 005°22'0 0.0
2017-Jun-17 12:00N 36°09' W 005°22'0 0.0
2017-Jun-17 11:30N 36°09' W 005°22'0 0.0
2017-Jun-17 11:00N 36°09' W 005°22'0 0.0
2017-Jun-17 10:27N 36°09' W 005°22'0 0.0
2017-Jun-17 10:00N 36°09' W 005°22'0 0.0
2017-Jun-17 09:30N 36°09' W 005°22'0 0.0
2017-Jun-17 09:00N 36°09' W 005°22'0 0.0
2017-Jun-17 08:30N 36°09' W 005°22'0 0.0
2017-Jun-17 08:00N 36°09' W 005°22'0 0.0
2017-Jun-17 07:30N 36°09' W 005°22'0 0.0
2017-Jun-17 07:00N 36°09' W 005°22'0 0.0
2017-Jun-17 06:30N 36°09' W 005°22'0 0.1
2017-Jun-17 06:00N 36°09' W 005°22'3 5.8
2017-Jun-17 05:30N 36°06' W 005°23'714.0
2017-Jun-17 05:00N 35°59' W 005°24'1016.6
2017-Jun-17 04:24N 35°56' W 005°36'915.2
2017-Jun-17 03:48N 35°55' W 005°47'515.5
2017-Jun-17 03:30N 35°54' W 005°53'815.7
2017-Jun-17 03:00N 35°53' W 006°02'815.7
2017-Jun-17 02:30N 35°53' W 006°12'3315.2
2017-Jun-17 00:20N 35°27' W 006°37'815.6
2017-Jun-16 23:47N 35°19' W 006°42'3215.3
2017-Jun-16 21:42N 34°54' W 007°05'415.2
2017-Jun-16 21:25N 34°50' W 007°08'1615.2
2017-Jun-16 20:20N 34°36' W 007°17'515.4
2017-Jun-16 19:59N 34°31' W 007°20'715.2
2017-Jun-16 19:30N 34°24' W 007°23'815.5
2017-Jun-16 18:59N 34°16' W 007°26'815.7
2017-Jun-16 18:30N 34°09' W 007°30'  

Dump ship's entire track history